ADDS TAF Board (Experimental) INFO Settings
IDs: Format: Expanded Condensed

KMSP - Minneapolis-St Paul, MN, US

Issued at 0302 UTC 27 Sep 2016
Updated at 0336 UTC 27 Sep 2016
Time0253Z 27/04Z 27/05Z 27/06Z 27/07Z 27/08Z 27/09Z 27/10Z 27/11Z 27/12Z 27/13Z 27/14Z 27/15Z 27/16Z
Type OBS PRVL PRVL PRVL PRVL PRVL PRVL PRVL PRVL PRVL PRVL PRVL PRVL PRVL
VIS 10 >6 >6 >6 >6 >6 >6 >6 >6 >6 >6 >6 >6 >6
CIG -- -- -- -- -- -- -- -- -- -- -- 35 35 35
Cover CLR SKC SKC SKC SKC SKC SKC SKC SKC SKC SKC BKN BKN BKN
FltCat VFR VFR VFR VFR VFR VFR VFR VFR VFR VFR VFR VFR VFR VFR
WX -- -- -- -- -- -- -- -- -- -- -- -- -- --
WDir 290 290 290 290 290 290 290 290 290 290 290 300 300 300
WSpd 12 12 12 12 12 12 12 12 12 12 12 15 15 15
WGst -- -- -- -- -- -- -- -- -- -- -- 24 24 24
R04/22
XWnd 11 11 11 11 11 11 11 11 11 11 11 14 14 14
XGst -- -- -- -- -- -- -- -- -- -- -- 23 23 23
HWnd -5 -5 -5 -5 -5 -5 -5 -5 -5 -5 -5 -4 -4 -4
HGst -- -- -- -- -- -- -- -- -- -- -- -6 -6 -6
R12/30
XWnd -2 -2 -2 -2 -2 -2 -2 -2 -2 -2 -2 -0 -0 -0
XGst -- -- -- -- -- -- -- -- -- -- -- -0 -0 -0
HWnd -12 -12 -12 -12 -12 -12 -12 -12 -12 -12 -12 -15 -15 -15
HGst -- -- -- -- -- -- -- -- -- -- -- -24 -24 -24
R17/35
XWnd -10 -10 -10 -10 -10 -10 -10 -10 -10 -10 -10 -11 -11 -11
XGst -- -- -- -- -- -- -- -- -- -- -- -18 -18 -18
HWnd -6 -6 -6 -6 -6 -6 -6 -6 -6 -6 -6 -10 -10 -10
HGst -- -- -- -- -- -- -- -- -- -- -- -15 -15 -15

Raw TAF
KMSP 270302Z 2703/2806 29012KT P6SM SKC
  FM271400 30015G24KT P6SM BKN035
  FM272200 30013G22KT P6SM -SHRA OVC040
  FM280200 31011KT P6SM BKN040


Raw METAR
KMSP 270253Z 29012KT 10SM CLR 14/02 A2987 RMK AO2 SLP116 T01440017 58002
KMSP 270153Z 28009KT 10SM CLR 14/02 A2988 RMK AO2 SLP119 T01440022
KMSP 270053Z 29008KT 10SM CLR 15/01 A2988 RMK AO2 SLP118 T01500011

METAR Board
Radar Display
Forecast Discussion

TAF Board Legend

Potential Impact
Threat None Slight Moderate High
Visibility (sm) ≥5.1 5.1>X≥3 3>X≥1 <1
Ceiling (100 ft) ≥30.1 30.1>X≥10 10>X≥5 <5
Wind Speed (kt) <10 10≤X<20 20≤X<30 ≥30
Wind Gust (kt) <15 15≤X<25 25≤X<35 ≥35
Weather No Wx Reported VCTS,-TS,-FZRA,SN TS,FZRA +TS,+FZRA,+SN